createdAt,value
2017-05-31T00:03:18.323Z,37.1
2017-05-31T00:14:19.022Z,39.4
2017-05-31T00:25:18.983Z,38.9
2017-05-31T00:36:18.440Z,39.6
2017-05-31T00:47:18.453Z,40.2
2017-05-31T00:58:19.411Z,41
2017-05-31T01:09:18.202Z,40.4
2017-05-31T01:20:19.033Z,39.2
2017-05-31T01:31:18.792Z,38.8
2017-05-31T01:42:18.084Z,38.5
2017-05-31T01:53:18.535Z,38.8
2017-05-31T02:04:18.414Z,38.3
2017-05-31T02:15:18.958Z,37.9
2017-05-31T02:26:18.860Z,37.3
2017-05-31T02:37:18.563Z,37.4
2017-05-31T02:48:18.178Z,37
2017-05-31T02:59:18.856Z,37.4
2017-05-31T03:10:19.473Z,37
2017-05-31T03:21:19.717Z,36.8
2017-05-31T03:32:19.105Z,36.9
2017-05-31T03:43:18.457Z,36.7
2017-05-31T03:54:18.558Z,36.3
2017-05-31T04:05:23.187Z,36.3
2017-05-31T04:16:18.369Z,36.1
2017-05-31T04:27:18.421Z,35.4
2017-05-31T04:38:18.010Z,35.4
2017-05-31T04:49:18.256Z,35.6
2017-05-31T05:00:19.486Z,35
2017-05-31T05:11:18.628Z,35.3
2017-05-31T05:22:18.517Z,35
2017-05-31T05:33:18.385Z,35.3
2017-05-31T05:44:18.147Z,35.5
2017-05-31T05:55:18.665Z,35.7
2017-05-31T06:06:18.051Z,55.7
2017-05-31T06:17:18.437Z,35.7
2017-05-31T06:28:18.311Z,35.4
2017-05-31T06:39:18.970Z,37.9
2017-05-31T06:50:19.296Z,39.9
2017-05-31T07:01:18.928Z,40.4
2017-05-31T07:13:18.579Z,41.1
2017-05-31T07:24:18.704Z,42.2
2017-05-31T07:35:24.702Z,42.3
2017-05-31T07:46:18.922Z,43.8
2017-05-31T07:57:18.319Z,42
2017-05-31T08:08:18.937Z,42.3
2017-05-31T08:19:18.600Z,42
2017-05-31T08:30:19.590Z,42.5
2017-05-31T08:41:19.107Z,41.5
2017-05-31T08:52:19.121Z,42.5
2017-05-31T09:03:18.326Z,41.2
2017-05-31T09:14:18.429Z,41.3
2017-05-31T09:25:18.981Z,41.4
2017-05-31T09:36:18.485Z,40.8
2017-05-31T09:47:18.853Z,41
2017-05-31T09:58:18.784Z,40.2
2017-05-31T10:09:18.576Z,40.9
2017-05-31T10:20:19.214Z,40.1
2017-05-31T10:31:17.895Z,40.3
2017-05-31T10:42:18.498Z,39.9
2017-05-31T10:53:19.064Z,40.2
2017-05-31T11:04:19.002Z,39.5
2017-05-31T11:15:18.848Z,39.2
2017-05-31T11:26:18.806Z,39.6
2017-05-31T11:37:18.559Z,39.2
2017-05-31T11:48:19.081Z,39.7
2017-05-31T11:59:18.702Z,41.8
2017-05-31T12:10:20.200Z,43
2017-05-31T12:21:18.367Z,43.1
2017-05-31T12:32:19.095Z,43.1
2017-05-31T12:43:19.170Z,44.1
2017-05-31T12:54:18.019Z,45.2
2017-05-31T13:05:19.122Z,45.6
2017-05-31T13:16:18.446Z,44.8
2017-05-31T13:27:18.305Z,44.3
2017-05-31T13:38:18.608Z,44.4
2017-05-31T13:49:19.219Z,44.2
2017-05-31T14:00:19.021Z,43.8
2017-05-31T14:11:19.133Z,43.4
2017-05-31T14:22:18.816Z,42.8
2017-05-31T14:33:18.343Z,42.3
2017-05-31T14:44:18.797Z,42.1
2017-05-31T14:55:19.642Z,42.2
2017-05-31T15:06:18.096Z,41.6
2017-05-31T15:17:18.672Z,41.3
2017-05-31T15:28:18.903Z,41.5
2017-05-31T15:39:18.751Z,41.6
2017-05-31T15:50:19.468Z,41
2017-05-31T16:01:18.481Z,40.9
2017-05-31T16:12:18.305Z,40.7
2017-05-31T16:23:18.068Z,40.6
2017-05-31T16:34:19.935Z,39.8
2017-05-31T16:45:19.070Z,39.1
2017-05-31T16:56:18.588Z,39.3
2017-05-31T17:07:18.596Z,38.6
2017-05-31T17:18:19.057Z,39.5
2017-05-31T17:29:18.593Z,38.8
2017-05-31T17:40:20.199Z,38.4
2017-05-31T17:51:18.998Z,38.8
2017-05-31T18:02:18.404Z,37.7
2017-05-31T18:13:18.336Z,40.9
2017-05-31T18:24:19.150Z,41.6
2017-05-31T18:35:19.056Z,42.5
2017-05-31T18:46:19.047Z,42.2
2017-05-31T18:57:18.729Z,42.8
2017-05-31T19:08:18.987Z,42.9
2017-05-31T19:19:18.455Z,43.6
2017-05-31T19:30:19.612Z,42.9
2017-05-31T19:41:18.782Z,41.2
2017-05-31T19:52:18.695Z,41.2
2017-05-31T20:03:18.397Z,41
2017-05-31T20:14:19.024Z,40.4
2017-05-31T20:25:24.288Z,39.5
2017-05-31T20:36:18.241Z,38.8
2017-05-31T20:47:18.287Z,38.1
2017-05-31T20:58:18.520Z,38
2017-05-31T21:09:18.235Z,37.9
2017-05-31T21:20:20.522Z,36.6
2017-05-31T21:31:18.840Z,35.3
2017-05-31T21:42:19.744Z,34.8
2017-05-31T21:53:18.851Z,35.3
2017-05-31T22:04:18.274Z,35.3
2017-05-31T22:15:19.143Z,34.6
2017-05-31T22:26:18.379Z,33.5
2017-05-31T22:37:18.102Z,34
2017-05-31T22:48:18.415Z,34.3
2017-05-31T22:59:19.028Z,33.7
2017-05-31T23:10:19.146Z,33.8
2017-05-31T23:21:18.641Z,32.8
2017-05-31T23:32:18.946Z,32.9
2017-05-31T23:43:18.345Z,32.6
2017-05-31T23:54:18.456Z,31.4
